»·PEaware :: SWA3598 KPDX-KOAK

SWA3598 :: KPDX-KOAK

FLIGHT INFORMATION

Flight Status: Arrived
Operator:
Southwest Airlines
More flights by this operator :: More flights under this callsign
Pilot: Ben F. (2808)
Aircraft: BOEING 737-300
(B733)
More flights by this aircraft type
Origin: KPDX Portland Intl
United States
Destination: KOAK Metro Oakland Intl
United States
More flights between these airports :: More routes between these airports
Route: MINNE5 HISKU Q5 HUPTU SPAMY WNDSR2
File this flight plan on PilotEdge
Remarks:
Altitude:
(Current/Filed)
35,000ft
Speed:
(Current/Filed)
438kts
Departed: 01-Sep-19 07:13 AM
Arrived: 01-Sep-19 08:43 AM
Distance/Time
Traveled:
473nm/1:29
Distance/Time
To Go:
Arrived

Flight Plot

Page will automatically refresh every two minutes.

Flight plan parsing failed; only flown route is shown


Map Options




Map Legend


Flown Route
Filed Route
Departure Airport
Arrival Airport
Navaid (VOR, NDB)
Fix

Horizontal Profiles

Position Reports

Time Latitude Longitude Heading Altitude Ground
Speed
01-Sep-19 06:44 45.589804 -122.597362 209 29ft 0kts
01-Sep-19 06:45 45.589804 -122.597362 209 29ft 0kts
01-Sep-19 06:46 45.589804 -122.597362 209 29ft 0kts
01-Sep-19 06:47 45.589804 -122.597362 209 29ft 0kts
01-Sep-19 06:48 45.589804 -122.597362 209 29ft 0kts
01-Sep-19 06:49 45.589804 -122.597362 209 29ft 0kts
01-Sep-19 06:50 45.589804 -122.597362 209 29ft 0kts
01-Sep-19 06:51 45.589804 -122.597362 209 29ft 0kts
01-Sep-19 06:52 45.589804 -122.597362 209 29ft 0kts
01-Sep-19 06:53 45.589804 -122.597362 209 29ft 0kts
01-Sep-19 06:54 45.589804 -122.597362 209 29ft 0kts
01-Sep-19 06:55 45.589804 -122.597362 209 29ft 0kts
01-Sep-19 06:56 45.589804 -122.597362 209 29ft 0kts
01-Sep-19 06:57 45.589804 -122.597362 209 29ft 0kts
01-Sep-19 06:58 45.589804 -122.597362 209 29ft 0kts
01-Sep-19 06:59 45.589804 -122.597362 209 29ft 0kts
01-Sep-19 07:00 45.589804 -122.597362 209 29ft 0kts
01-Sep-19 07:01 45.589804 -122.597362 209 29ft 0kts
01-Sep-19 07:02 45.589804 -122.597362 209 29ft 0kts
01-Sep-19 07:03 45.589804 -122.597362 209 29ft 0kts
01-Sep-19 07:04 45.589911 -122.597275 209 29ft 2kts
01-Sep-19 07:05 45.590373 -122.596754 252 29ft 2kts
01-Sep-19 07:06 45.590392 -122.596539 268 29ft 0kts
01-Sep-19 07:07 45.590392 -122.596565 271 29ft 0kts
01-Sep-19 07:08 45.591003 -122.598312 301 29ft 3kts
01-Sep-19 07:09 45.593081 -122.597793 9 29ft 11kts
01-Sep-19 07:10 45.594452 -122.597456 45 29ft 0kts
01-Sep-19 07:12 45.594557 -122.597301 47 29ft 4kts
01-Sep-19 07:13 45.587165 -122.576059 118 67ft 165kts
01-Sep-19 07:14 45.571884 -122.510431 102 2537ft 174kts
01-Sep-19 07:15 45.559772 -122.431964 102 4022ft 230kts
01-Sep-19 07:16 45.535402 -122.335681 143 5953ft 275kts
01-Sep-19 07:17 45.462028 -122.317257 190 8786ft 272kts
01-Sep-19 07:18 45.408261 -122.388617 244 11013ft 295kts
01-Sep-19 07:19 45.372216 -122.502184 244 12997ft 326kts
01-Sep-19 07:20 45.334179 -122.621443 244 15571ft 335kts
01-Sep-19 07:21 45.295984 -122.740854 243 17896ft 343kts
01-Sep-19 07:22 45.255635 -122.866232 243 20116ft 351kts
01-Sep-19 07:23 45.189474 -122.963626 197 22027ft 364kts
01-Sep-19 07:24 45.084635 -122.964164 183 23769ft 381kts
01-Sep-19 07:25 44.977788 -122.960330 184 25495ft 387kts
01-Sep-19 07:26 44.871951 -122.956744 184 26943ft 395kts
01-Sep-19 07:27 44.760738 -122.952910 184 28443ft 401kts
01-Sep-19 07:27 44.666319 -122.949681 184 29515ft 406kts
01-Sep-19 07:29 44.533440 -122.945134 184 31028ft 405kts
01-Sep-19 07:29 44.439482 -122.942234 185 32107ft 401kts
01-Sep-19 07:30 44.328022 -122.938810 185 33165ft 397kts
01-Sep-19 07:32 44.198595 -122.934810 185 34118ft 394kts
01-Sep-19 07:32 44.106891 -122.931990 185 34649ft 393kts
01-Sep-19 07:34 43.978575 -122.928067 184 35080ft 396kts
01-Sep-19 07:34 43.888962 -122.925321 184 35065ft 401kts
01-Sep-19 07:35 43.776156 -122.921848 184 35105ft 402kts
01-Sep-19 07:37 43.645545 -122.917882 184 35103ft 402kts
01-Sep-19 07:37 43.552234 -122.915057 184 35100ft 401kts
01-Sep-19 07:38 43.439945 -122.911675 184 35101ft 403kts
01-Sep-19 07:39 43.327578 -122.908301 184 35101ft 403kts
01-Sep-19 07:40 43.214667 -122.904924 184 35103ft 404kts
01-Sep-19 07:41 43.102133 -122.901570 183 35112ft 404kts
01-Sep-19 07:42 42.988950 -122.898208 183 35123ft 405kts
01-Sep-19 07:43 42.882683 -122.895060 183 35084ft 406kts
01-Sep-19 07:44 42.769639 -122.891707 183 35112ft 406kts
01-Sep-19 07:45 42.656580 -122.888384 183 35108ft 406kts
01-Sep-19 07:46 42.543409 -122.885069 183 35104ft 406kts
01-Sep-19 07:47 42.429854 -122.882159 183 35104ft 407kts
01-Sep-19 07:48 42.316045 -122.879013 183 35100ft 407kts
01-Sep-19 07:49 42.202171 -122.875733 183 35103ft 407kts
01-Sep-19 07:50 42.088712 -122.872471 183 35102ft 407kts
01-Sep-19 07:51 41.974735 -122.869212 182 35117ft 408kts
01-Sep-19 07:52 41.868557 -122.866176 182 35115ft 409kts
01-Sep-19 07:53 41.754559 -122.862925 182 35140ft 409kts
01-Sep-19 07:54 41.640318 -122.859691 182 35137ft 410kts
01-Sep-19 07:55 41.525195 -122.856440 182 35139ft 410kts
01-Sep-19 07:56 41.411237 -122.853234 182 35138ft 409kts
01-Sep-19 07:57 41.296593 -122.849018 181 35139ft 410kts
01-Sep-19 07:58 41.181799 -122.842131 181 35136ft 410kts
01-Sep-19 07:59 41.067049 -122.835257 181 35140ft 410kts
01-Sep-19 08:00 40.952374 -122.828411 180 35139ft 410kts
01-Sep-19 08:01 40.845471 -122.822049 180 35134ft 410kts
01-Sep-19 08:02 40.731328 -122.815281 180 35109ft 410kts
01-Sep-19 08:03 40.616331 -122.808485 180 35030ft 410kts
01-Sep-19 08:04 40.501998 -122.801753 180 35029ft 410kts
01-Sep-19 08:05 40.387305 -122.795024 180 35031ft 411kts
01-Sep-19 08:06 40.272711 -122.788321 180 35027ft 411kts
01-Sep-19 08:07 40.158295 -122.781651 180 35013ft 410kts
01-Sep-19 08:08 40.043525 -122.774984 180 35011ft 410kts
01-Sep-19 08:09 39.928828 -122.768347 180 35012ft 412kts
01-Sep-19 08:10 39.820546 -122.762097 180 35013ft 411kts
01-Sep-19 08:11 39.705596 -122.755583 180 35011ft 411kts
01-Sep-19 08:12 39.590586 -122.749230 180 34962ft 414kts
01-Sep-19 08:13 39.476265 -122.733547 162 32904ft 421kts
01-Sep-19 08:14 39.367305 -122.676147 162 30330ft 420kts
01-Sep-19 08:15 39.259120 -122.620739 161 27330ft 414kts
01-Sep-19 08:16 39.151326 -122.583647 176 24791ft 386kts
01-Sep-19 08:17 39.046918 -122.569329 175 23206ft 374kts
01-Sep-19 08:18 38.945778 -122.544736 171 21198ft 362kts
01-Sep-19 08:19 38.857431 -122.522587 171 19348ft 351kts
01-Sep-19 08:20 38.762908 -122.498969 171 17836ft 344kts
01-Sep-19 08:21 38.669390 -122.476725 174 16325ft 336kts
01-Sep-19 08:22 38.577229 -122.462852 175 14822ft 329kts
01-Sep-19 08:23 38.486402 -122.449007 175 13316ft 322kts
01-Sep-19 08:24 38.401312 -122.436025 175 12078ft 290kts
01-Sep-19 08:25 38.322924 -122.424147 174 10865ft 283kts
01-Sep-19 08:26 38.244224 -122.412235 174 9658ft 283kts
01-Sep-19 08:27 38.165905 -122.400316 173 8490ft 277kts
01-Sep-19 08:28 38.089254 -122.388577 173 7380ft 273kts
01-Sep-19 08:29 38.014820 -122.372503 146 6989ft 272kts
01-Sep-19 08:30 37.953578 -122.314266 143 6409ft 271kts
01-Sep-19 08:31 37.897414 -122.260557 143 5847ft 270kts
01-Sep-19 08:32 37.839527 -122.205620 143 5259ft 252kts
01-Sep-19 08:33 37.783685 -122.151659 131 4983ft 245kts
01-Sep-19 08:34 37.743189 -122.086528 128 4997ft 230kts
01-Sep-19 08:35 37.703367 -122.021820 128 4798ft 232kts
01-Sep-19 08:36 37.657030 -121.978826 211 4152ft 205kts
01-Sep-19 08:37 37.630018 -122.037250 245 3550ft 189kts
01-Sep-19 08:38 37.623714 -122.095130 301 2736ft 171kts
01-Sep-19 08:39 37.653020 -122.141221 311 1599ft 147kts
01-Sep-19 08:40 37.678906 -122.180085 309 752ft 143kts
01-Sep-19 08:41 37.703619 -122.217458 308 15ft 127kts
01-Sep-19 08:42 37.714002 -122.231315 343 14ft 14kts
01-Sep-19 08:43 37.713744 -122.228918 131 14ft 19kts
01-Sep-19 08:44 37.711919 -122.223388 41 14ft 19kts

Navigation Log

Ident Type
Flight plan parsing failed, navigation log unavailable